AirNav   Air Wisconsin Up To $57,000 Bonus
 
 399 users online  

2NH5 Pilgrim's Home Airfield
Westmoreland, New Hampshire, USA

GOING TO WESTMORELAND?


FAA INFORMATION EFFECTIVE 22 APRIL 2021

Location

FAA Identifier: 2NH5
Lat/Long: 42-59-25.0000N 072-24-06.0000W
42-59.416667N 072-24.100000W
42.9902778,-72.4016667
(estimated)
Elevation: 600 ft. / 183 m (estimated)
Variation: 15W (2000)
From city: 3 miles NE of WESTMORELAND, NH
Time zone: UTC -4 (UTC -5 during Standard Time)
Zip code: 03467

Airport Operations

Airport use: Private use. Permission required prior to landing
Activation date: 01/2003
Control tower: no
ARTCC: BOSTON CENTER
FSS: BANGOR FLIGHT SERVICE STATION
Attendance: UNATNDD
Segmented circle: no

Airport Communications

WX AWOS-3PT at EEN (8 nm SE): 119.025 (603-358-6424)

Nearby radio navigation aids

VOR radial/distance  VOR name  Freq  Var
EENr352/12.7KEENE VORTAC109.4014W
GDMr344/30.7GARDNER VOR/DME110.6014W
CONr264/38.7CONCORD VOR/DME112.9015W

 
NDB name  Hdg/Dist  Freq  Var  ID
CLAREMONT199/22.823316WCNH -.-. -. ....

Airport Services

Runway Information

Runway 17/35

Dimensions: 1200 x 40 ft. / 366 x 12 m
Surface: turf
RUNWAY 17  RUNWAY 35
Traffic pattern: leftleft
Displaced threshold: no300 ft.
Obstructions: 75 ft. trees50 ft. pline

Runway 1/19

Dimensions: 800 x 30 ft. / 244 x 9 m
Surface: turf
RUNWAY 1  RUNWAY 19
Traffic pattern: leftright
Obstructions: 35 ft. bldg15 ft. bldg

Airport Ownership and Management from official FAA records

Ownership: Privately-owned
Owner: WILLIAM FLETCHER
92 THOMPSON ROAD
WESTMORELAND, NH 03467
Phone 603-313-9396
Manager: WILLIAM FLETCHER
92 THOMPSON ROAD
WESTMORELAND, NH
Phone 603-313-9396

Airport Operational Statistics

Aircraft based on the field: 1
Single engine airplanes: 1
    

Additional Remarks

FOR CD CTC BOSTON ARTCC AT 603-879-6859.

Instrument Procedures

There are no published instrument procedures at 2NH5.

Some nearby airports with instrument procedures:

KEEN - Dillant-Hopkins Airport (8 nm SE)
4V8 - Deerfield Valley Regional Airport (21 nm W)
KAFN - Jaffrey/Silver Ranch Airport (21 nm SE)
KVSF - Hartness State Airport (Springfield) (22 nm N)
KCNH - Claremont Municipal Airport (23 nm N)
 
Loc | Ops | Rwys | IFR | FBO | Links
Com | Nav | Svcs | Stats | Notes
Area around 2NH5 (Pilgrim's Home Airfield)
 
Road maps at: MapQuest Bing Google
 
Aerial photo
WARNING: Photo may not be current or correct
Aerial photo of 2NH5 (Pilgrim's Home Airfield)
Do you have a better or more recent aerial photo of Pilgrim's Home Airfield that you would like to share? If so, please send us your photo.

 
Sectional chart

 
Airport distance calculator
Flying to Pilgrim's Home Airfield? Find the distance to fly.

From to 2NH5

Sunrise and sunset
Times for 09-May-2021
 Local
(UTC-4)
 Zulu
(UTC)
Morning civil twilight05:0209:02
Sunrise05:3409:34
Sunset19:5823:58
Evening civil twilight20:3000:30

Current date and time
Zulu (UTC)  09-May-2021 08:06:05
Local (UTC-4)  09-May-2021 04:06:05
 
METAR
KEEN 
9nm SE 
090756Z AUTO 00000KT 6SM BR CLR 03/02 A2992 RMK AO2 SLP137 T00280022 $
TAF
KLEB 
39nm N 
090520Z 0906/1006 18006KT P6SM FEW100 FM091600 28006KT P6SM BKN250
KRUT 
40nm NW 
090538Z 0906/1006 27003KT P6SM BKN040 TEMPO 0907/0911 BKN024 FM091400 29005KT P6SM SCT035 FM100200 17005KT P6SM OVC050 FM100300 16005KT P6SM VCSH OVC030
KCON 
41nm E 
090520Z 0906/1006 29004KT P6SM BKN100 FM091600 28009KT P6SM BKN200
KMHT 
43nm E 
090520Z 0906/1006 28005KT P6SM OVC080 FM091200 31007KT P6SM SCT100 FM091700 27010KT P6SM BKN100
KCEF 
48nm S 
090200Z 0902/1008 28009KT 9999 BKN050 OVC075 620503 QNH2990INS BECMG 0909/0910 29012KT 9999 SCT060 SCT250 QNH2991INS BECMG 0918/0919 23009KT 9999 BKN050 OVC100 620508 QNH2988INS BECMG 0922/0923 21012KT 8000 -RA BR OVC025 620409 510404 QNH2979INS BECMG 1004/1005 VRB06KT 3200 RA BR OVC010 510404 QNH2972INS TX17/0918Z TN06/0910Z LAST NO AMDS AFT 0903 NEXT 0911
NOTAMs
Click for the latest NOTAMs
NOTAMs are issued by the DoD/FAA and will open in a separate window not controlled by AirNav.

 

 
 

Would you like to see your business listed on this page?

 If your business provides an interesting product or service to pilots, flight crews, aircraft, or users of the Pilgrim's Home Airfield, you should consider listing it here.  To start the listing process, click on the button below
 
Add a business
 

Other Pages about Pilgrim's Home Airfield

Update a link
 
Copyright © AirNav, LLC. All rights reserved. Privacy Policy  Contact